createdAt,value
2022-10-20T00:02:19.570Z,96158.73
2022-10-20T00:04:46.547Z,96154.98
2022-10-20T00:07:13.056Z,96155.39
2022-10-20T00:09:39.829Z,96156.77
2022-10-20T00:12:06.404Z,96169.05
2022-10-20T00:14:33.351Z,96172.68
2022-10-20T00:17:00.977Z,96171.57
2022-10-20T00:19:28.193Z,96166.78
2022-10-20T00:21:54.742Z,96173.21
2022-10-20T00:24:21.252Z,96179.50
2022-10-20T00:26:47.999Z,96179.27
2022-10-20T00:29:15.880Z,96175.89
2022-10-20T00:31:43.548Z,96171.16
2022-10-20T00:34:10.604Z,96172.23
2022-10-20T00:36:38.757Z,96168.23
2022-10-20T00:39:06.422Z,96168.48
2022-10-20T00:41:33.707Z,96169.13
2022-10-20T00:44:41.996Z,96163.39
2022-10-20T00:47:17.310Z,96161.55
2022-10-20T00:49:44.532Z,96167.62
2022-10-20T00:52:11.743Z,96171.80
2022-10-20T00:54:38.763Z,96169.72
2022-10-20T00:57:05.957Z,96169.42
2022-10-20T00:59:36.775Z,96166.56
2022-10-20T01:02:06.523Z,96164.49
2022-10-20T01:04:35.931Z,96169.95
2022-10-20T01:07:03.361Z,96164.86
2022-10-20T01:09:31.486Z,96161.79
2022-10-20T01:12:07.265Z,96161.65
2022-10-20T01:15:03.195Z,96165.69
2022-10-20T01:17:46.032Z,96168.61
2022-10-20T01:20:31.825Z,96173.94
2022-10-20T01:23:26.372Z,96176.37
2022-10-20T01:26:02.271Z,96182.69
2022-10-20T01:28:42.072Z,96184.04
2022-10-20T01:31:29.859Z,96187.05
2022-10-20T01:34:09.294Z,96192.06
2022-10-20T01:36:41.176Z,96194.97
2022-10-20T01:39:16.101Z,96198.75
2022-10-20T01:41:49.713Z,96199.45
2022-10-20T01:44:20.521Z,96198.11
2022-10-20T01:46:48.026Z,96202.76
2022-10-20T01:49:15.763Z,96206.17
2022-10-20T01:54:22.357Z,96209.19
2022-10-20T01:57:17.442Z,96212.75
2022-10-20T01:59:54.049Z,96210.42
2022-10-20T02:02:33.597Z,96211.48
2022-10-20T02:05:28.176Z,96212.61
2022-10-20T02:08:07.007Z,96222.38
2022-10-20T02:10:48.052Z,96226.48
2022-10-20T02:13:16.955Z,96228.61
2022-10-20T02:15:51.998Z,96234.31
2022-10-20T02:18:25.072Z,96236.96
2022-10-20T02:20:54.697Z,96240.34
2022-10-20T02:23:21.757Z,96238.45
2022-10-20T02:25:52.217Z,96242.04
2022-10-20T02:28:20.025Z,96247.98
2022-10-20T02:30:47.620Z,96246.73
2022-10-20T02:33:16.499Z,96245.90
2022-10-20T02:35:50.910Z,96254.03
2022-10-20T02:38:17.650Z,96253.69
2022-10-20T02:40:44.508Z,96252.41
2022-10-20T02:43:11.244Z,96256.43
2022-10-20T02:45:38.645Z,96255.48
2022-10-20T02:48:08.716Z,96250.55
2022-10-20T02:50:35.922Z,96249.14
2022-10-20T02:53:03.752Z,96247.95
2022-10-20T02:55:30.549Z,96252.77
2022-10-20T02:57:57.586Z,96253.71
2022-10-20T03:00:24.173Z,96256.48
2022-10-20T03:02:51.861Z,96254.44
2022-10-20T03:05:18.577Z,96253.70
2022-10-20T03:07:45.174Z,96257.02
2022-10-20T03:10:11.669Z,96253.80
2022-10-20T03:12:38.406Z,96262.02
2022-10-20T03:15:05.659Z,96265.34
2022-10-20T03:17:32.297Z,96266.39
2022-10-20T03:19:58.942Z,96265.80
2022-10-20T03:22:25.607Z,96269.60
2022-10-20T03:24:52.295Z,96273.37
2022-10-20T03:27:18.941Z,96271.73
2022-10-20T03:29:45.453Z,96275.67
2022-10-20T03:32:12.048Z,96281.34
2022-10-20T03:39:13.441Z,96282.36
2022-10-20T03:41:39.941Z,96284.41
2022-10-20T03:44:06.539Z,96282.49
2022-10-20T03:46:33.129Z,96280.66
2022-10-20T03:48:59.878Z,96280.34
2022-10-20T03:51:26.526Z,96279.45
2022-10-20T03:53:53.129Z,96278.15
2022-10-20T03:56:21.028Z,96276.58
2022-10-20T03:58:48.278Z,96271.83
2022-10-20T04:01:16.843Z,96272.17
2022-10-20T04:03:46.998Z,96276.59
2022-10-20T04:06:14.719Z,96273.47
2022-10-20T04:08:41.864Z,96273.90
2022-10-20T04:11:08.933Z,96274.83
2022-10-20T04:13:35.728Z,96272.41
2022-10-20T04:16:02.329Z,96273.00
2022-10-20T04:18:28.947Z,96268.29
2022-10-20T04:20:55.609Z,96264.40
2022-10-20T04:23:22.311Z,96268.95
2022-10-20T04:25:49.113Z,96267.24
2022-10-20T04:28:18.418Z,96270.21
2022-10-20T04:30:46.570Z,96266.88
2022-10-20T04:33:13.839Z,96266.92
2022-10-20T04:35:40.929Z,96270.30
2022-10-20T04:38:08.343Z,96265.04
2022-10-20T04:40:34.982Z,96265.73
2022-10-20T04:43:01.630Z,96268.63
2022-10-20T04:45:30.045Z,96278.70
2022-10-20T04:47:58.039Z,96275.29
2022-10-20T04:50:24.745Z,96286.20
2022-10-20T04:53:20.705Z,96286.43
2022-10-20T04:55:54.133Z,96284.18
2022-10-20T05:03:15.366Z,96295.15
2022-10-20T05:05:41.997Z,96290.45
2022-10-20T05:08:08.507Z,96294.42
2022-10-20T05:10:36.683Z,96297.34
2022-10-20T05:13:03.690Z,96303.57
2022-10-20T05:15:30.222Z,96303.30
2022-10-20T05:17:57.996Z,96313.59
2022-10-20T05:20:24.565Z,96314.40
2022-10-20T05:22:51.267Z,96314.15
2022-10-20T05:25:35.591Z,96312.90
2022-10-20T05:28:04.110Z,96314.80
2022-10-20T05:30:31.063Z,96319.14
2022-10-20T05:32:57.806Z,96321.50
2022-10-20T05:35:24.545Z,96324.02
2022-10-20T05:37:51.294Z,96326.62
2022-10-20T05:40:18.124Z,96331.08
2022-10-20T05:42:44.688Z,96336.11
2022-10-20T05:45:11.306Z,96336.70
2022-10-20T05:47:38.307Z,96333.29
2022-10-20T05:50:05.471Z,96334.48
2022-10-20T05:52:34.216Z,96337.35
2022-10-20T05:55:02.059Z,96339.89
2022-10-20T05:57:28.799Z,96342.64
2022-10-20T05:59:55.549Z,96343.84
2022-10-20T06:02:22.285Z,96350.28
2022-10-20T06:04:48.973Z,96355.48
2022-10-20T06:07:24.609Z,96361.86
2022-10-20T06:09:54.911Z,96364.16
2022-10-20T06:12:32.207Z,96368.27
2022-10-20T06:15:01.607Z,96369.88
2022-10-20T06:17:28.378Z,96375.06
2022-10-20T06:19:54.994Z,96378.93
2022-10-20T06:22:21.549Z,96381.94
2022-10-20T06:24:48.258Z,96384.60
2022-10-20T06:27:15.900Z,96387.42
2022-10-20T06:29:44.805Z,96390.63
2022-10-20T06:32:27.424Z,96390.55
2022-10-20T06:39:52.086Z,96396.27
2022-10-20T06:42:25.046Z,96395.73
2022-10-20T06:44:54.760Z,96404.83
2022-10-20T06:47:52.136Z,96402.67
2022-10-20T06:50:44.359Z,96406.92
2022-10-20T06:53:11.933Z,96407.21
2022-10-20T06:55:40.239Z,96404.67
2022-10-20T06:58:09.304Z,96407.91
2022-10-20T07:00:36.279Z,96412.61
2022-10-20T07:03:03.910Z,96411.51
2022-10-20T07:06:38.261Z,96409.75
2022-10-20T07:09:08.738Z,96413.41
2022-10-20T07:11:36.022Z,96412.77
2022-10-20T07:14:03.885Z,96414.24
2022-10-20T07:16:33.753Z,96418.54
2022-10-20T07:19:01.676Z,96416.11
2022-10-20T07:21:34.962Z,96418.34
2022-10-20T07:24:07.131Z,96419.46
2022-10-20T07:26:37.613Z,96422.63
2022-10-20T07:29:04.827Z,96428.34
2022-10-20T07:31:37.770Z,96422.42
2022-10-20T07:34:23.938Z,96425.24
2022-10-20T07:36:53.418Z,96429.94
2022-10-20T07:39:20.220Z,96427.22
2022-10-20T07:41:47.635Z,96430.48
2022-10-20T07:49:31.238Z,96431.86
2022-10-20T07:51:50.847Z,96426.30
2022-10-20T07:54:17.914Z,96426.40
2022-10-20T07:56:45.826Z,96428.57
2022-10-20T07:59:13.754Z,96423.20
2022-10-20T08:01:41.569Z,96427.31
2022-10-20T08:04:08.364Z,96427.98
2022-10-20T08:11:11.142Z,96427.15
2022-10-20T08:13:40.333Z,96425.20
2022-10-20T08:16:15.480Z,96423.49
2022-10-20T08:18:46.122Z,96426.66
2022-10-20T08:21:16.889Z,96424.70
2022-10-20T08:23:46.398Z,96424.18
2022-10-20T08:26:18.058Z,96428.14
2022-10-20T08:28:44.782Z,96432.64
2022-10-20T08:31:11.437Z,96428.93
2022-10-20T08:33:39.274Z,96433.91
2022-10-20T08:36:09.285Z,96433.79
2022-10-20T08:38:37.323Z,96438.74
2022-10-20T08:41:12.440Z,96439.89
2022-10-20T08:48:34.195Z,96440.09
2022-10-20T08:51:00.860Z,96441.27
2022-10-20T08:53:35.468Z,96441.99
2022-10-20T08:56:02.145Z,96435.13
2022-10-20T08:58:28.845Z,96441.69
2022-10-20T09:00:58.514Z,96436.33
2022-10-20T09:03:31.034Z,96430.64
2022-10-20T09:06:09.560Z,96427.47
2022-10-20T09:08:39.019Z,96423.11
2022-10-20T09:15:37.929Z,96423.84
2022-10-20T09:18:11.076Z,96422.11
2022-10-20T09:20:58.201Z,96423.92
2022-10-20T09:23:42.692Z,96426.39
2022-10-20T09:26:24.834Z,96423.94
2022-10-20T09:29:16.196Z,96422.81
2022-10-20T09:31:49.472Z,96422.58
2022-10-20T09:34:31.576Z,96417.85
2022-10-20T09:37:12.710Z,96423.59
2022-10-20T09:39:55.424Z,96427.52
2022-10-20T09:42:29.288Z,96426.52
2022-10-20T09:44:57.460Z,96423.21
2022-10-20T09:47:26.668Z,96426.03
2022-10-20T09:50:00.956Z,96426.02
2022-10-20T09:52:40.188Z,96426.63
2022-10-20T09:55:22.234Z,96427.64
2022-10-20T09:57:49.362Z,96433.84
2022-10-20T10:00:36.218Z,96432.64
2022-10-20T10:03:21.866Z,96430.48
2022-10-20T10:05:56.666Z,96435.92
2022-10-20T10:08:40.255Z,96438.34
2022-10-20T10:11:16.533Z,96438.84
2022-10-20T10:13:46.104Z,96436.17
2022-10-20T10:16:16.745Z,96431.70
2022-10-20T10:18:49.220Z,96428.33
2022-10-20T10:21:16.991Z,96430.44
2022-10-20T10:23:59.599Z,96433.67
2022-10-20T10:26:41.807Z,96431.39
2022-10-20T10:29:28.208Z,96425.95
2022-10-20T10:32:29.970Z,96420.63
2022-10-20T10:35:18.217Z,96415.61
2022-10-20T10:37:46.148Z,96412.52
2022-10-20T10:40:18.764Z,96409.94
2022-10-20T10:42:55.337Z,96407.53
2022-10-20T10:45:34.392Z,96408.54
2022-10-20T10:52:18.855Z,96408.68
2022-10-20T10:54:51.632Z,96405.83
2022-10-20T10:57:53.109Z,96402.05
2022-10-20T11:00:39.144Z,96400.25
2022-10-20T11:03:37.617Z,96400.20
2022-10-20T11:06:36.676Z,96398.86
2022-10-20T11:09:29.226Z,96398.66
2022-10-20T11:16:20.482Z,96395.84
2022-10-20T11:19:11.831Z,96394.48
2022-10-20T11:22:03.470Z,96394.48
2022-10-20T11:24:48.693Z,96393.17
2022-10-20T11:28:06.444Z,96394.33
2022-10-20T11:30:33.610Z,96392.56
2022-10-20T11:33:12.493Z,96391.70
2022-10-20T11:35:58.214Z,96389.06
2022-10-20T11:38:40.814Z,96385.22
2022-10-20T11:41:16.581Z,96385.23
2022-10-20T11:43:50.005Z,96381.37
2022-10-20T11:47:15.587Z,96376.39
2022-10-20T11:49:43.442Z,96377.84
2022-10-20T11:57:15.517Z,96377.44
2022-10-20T12:00:06.683Z,96376.30
2022-10-20T12:02:48.629Z,96378.27
2022-10-20T12:05:27.710Z,96376.18
2022-10-20T12:08:45.507Z,96371.19
2022-10-20T12:11:17.405Z,96371.69
2022-10-20T12:14:02.705Z,96369.95
2022-10-20T12:16:51.663Z,96364.58
2022-10-20T12:19:33.189Z,96363.67
2022-10-20T12:23:17.228Z,96361.11
2022-10-20T12:25:44.087Z,96360.20
2022-10-20T12:33:17.572Z,96357.09
2022-10-20T12:35:58.681Z,96357.36
2022-10-20T12:38:26.931Z,96354.05
2022-10-20T12:40:57.772Z,96351.55
2022-10-20T12:43:46.061Z,96350.88
2022-10-20T12:46:20.744Z,96348.20
2022-10-20T12:48:56.086Z,96351.80
2022-10-20T12:51:32.250Z,96353.59
2022-10-20T12:54:25.002Z,96352.99
2022-10-20T12:56:58.604Z,96350.18
2022-10-20T12:59:28.354Z,96352.85
2022-10-20T13:02:10.529Z,96351.41
2022-10-20T13:04:59.188Z,96348.15
2022-10-20T13:07:48.253Z,96347.48
2022-10-20T13:10:31.091Z,96348.06
2022-10-20T13:13:01.322Z,96346.89
2022-10-20T13:15:36.449Z,96345.64
2022-10-20T13:18:34.830Z,96347.73
2022-10-20T13:21:32.114Z,96351.01
2022-10-20T13:24:28.926Z,96354.45
2022-10-20T13:27:01.087Z,96353.05
2022-10-20T13:29:35.475Z,96352.25
2022-10-20T13:32:25.102Z,96350.92
2022-10-20T13:35:08.880Z,96352.14
2022-10-20T13:37:54.004Z,96352.54
2022-10-20T13:40:46.163Z,96352.59
2022-10-20T13:43:44.242Z,96353.23
2022-10-20T13:46:50.142Z,96353.09
2022-10-20T13:49:29.321Z,96356.50
2022-10-20T13:52:03.125Z,96351.16
2022-10-20T13:55:25.466Z,96352.48
2022-10-20T13:57:58.555Z,96353.31
2022-10-20T14:00:31.345Z,96352.52
2022-10-20T14:03:23.990Z,96354.92
2022-10-20T14:05:53.905Z,96349.27
2022-10-20T14:08:23.527Z,96348.51
2022-10-20T14:10:59.781Z,96348.02
2022-10-20T14:13:35.943Z,96349.64
2022-10-20T14:16:16.407Z,96350.48
2022-10-20T14:18:43.084Z,96349.52
2022-10-20T14:21:18.594Z,96350.53
2022-10-20T14:23:48.654Z,96350.30
2022-10-20T14:26:19.651Z,96350.07
2022-10-20T14:28:49.304Z,96347.77
2022-10-20T14:31:20.210Z,96347.20
2022-10-20T14:33:49.507Z,96346.70
2022-10-20T14:36:23.683Z,96345.95
2022-10-20T14:38:56.864Z,96345.56
2022-10-20T14:41:25.611Z,96349.64
2022-10-20T14:44:04.894Z,96350.70
2022-10-20T14:46:40.450Z,96352.36
2022-10-20T14:49:26.387Z,96355.38
2022-10-20T14:51:59.278Z,96347.32
2022-10-20T14:57:06.995Z,96348.86
2022-10-20T14:59:58.640Z,96349.13
2022-10-20T15:02:51.061Z,96350.45
2022-10-20T15:05:39.309Z,96346.29
2022-10-20T15:08:10.049Z,96343.44
2022-10-20T15:10:38.532Z,96346.48
2022-10-20T15:13:05.311Z,96347.19
2022-10-20T15:15:38.563Z,96347.11
2022-10-20T15:18:05.306Z,96343.96
2022-10-20T15:20:35.738Z,96344.07
2022-10-20T15:23:24.700Z,96341.98
2022-10-20T15:26:00.000Z,96339.86
2022-10-20T15:28:37.344Z,96342.45
2022-10-20T15:31:15.777Z,96342.86
2022-10-20T15:33:43.102Z,96345.80
2022-10-20T15:36:12.786Z,96347.07
2022-10-20T15:38:39.455Z,96346.38
2022-10-20T15:41:06.289Z,96345.41
2022-10-20T15:43:33.042Z,96340.74
2022-10-20T15:45:59.889Z,96345.10
2022-10-20T15:48:26.465Z,96342.38
2022-10-20T15:50:54.293Z,96343.79
2022-10-20T15:53:20.987Z,96340.10
2022-10-20T15:55:47.579Z,96344.38
2022-10-20T15:58:14.313Z,96344.08
2022-10-20T16:00:41.171Z,96345.91
2022-10-20T16:03:16.411Z,96350.98
2022-10-20T16:05:44.167Z,96353.92
2022-10-20T16:08:10.967Z,96348.51
2022-10-20T16:10:39.289Z,96346.36
2022-10-20T16:13:05.901Z,96350.63
2022-10-20T16:15:32.489Z,96351.55
2022-10-20T16:17:59.325Z,96358.75
2022-10-20T16:20:26.067Z,96357.49
2022-10-20T16:22:52.797Z,96361.21
2022-10-20T16:25:19.412Z,96365.27
2022-10-20T16:27:46.056Z,96365.86
2022-10-20T16:30:12.730Z,96369.96
2022-10-20T16:32:39.730Z,96373.34
2022-10-20T16:35:07.482Z,96379.56
2022-10-20T16:37:34.483Z,96375.71
2022-10-20T16:40:01.832Z,96380.40
2022-10-20T16:42:29.772Z,96378.22
2022-10-20T16:44:57.026Z,96384.91
2022-10-20T16:47:26.876Z,96389.42
2022-10-20T16:49:53.632Z,96388.21
2022-10-20T16:52:20.384Z,96387.58
2022-10-20T16:54:47.151Z,96390.52
2022-10-20T16:57:13.983Z,96392.58
2022-10-20T16:59:42.320Z,96392.23
2022-10-20T17:02:11.886Z,96395.60
2022-10-20T17:04:39.086Z,96404.58
2022-10-20T17:07:08.117Z,96401.23
2022-10-20T17:09:35.030Z,96400.27
2022-10-20T17:12:01.765Z,96404.88
2022-10-20T17:14:28.621Z,96402.30
2022-10-20T17:16:55.337Z,96395.50
2022-10-20T17:19:22.034Z,96397.10
2022-10-20T17:21:51.266Z,96397.14
2022-10-20T17:24:20.459Z,96398.52
2022-10-20T17:26:47.164Z,96396.16
2022-10-20T17:29:14.185Z,96396.69
2022-10-20T17:31:40.994Z,96400.48
2022-10-20T17:34:08.588Z,96401.17
2022-10-20T17:36:35.374Z,96401.71
2022-10-20T17:39:10.302Z,96407.11
2022-10-20T17:41:37.006Z,96407.60
2022-10-20T17:44:05.695Z,96407.55
2022-10-20T17:46:33.064Z,96408.54
2022-10-20T17:49:01.103Z,96407.59
2022-10-20T17:51:31.784Z,96409.42
2022-10-20T17:54:02.609Z,96410.35
2022-10-20T17:56:35.398Z,96406.48
2022-10-20T17:59:03.683Z,96407.59
2022-10-20T18:01:38.514Z,96409.31
2022-10-20T18:04:16.524Z,96408.64
2022-10-20T18:06:45.081Z,96406.23
2022-10-20T18:09:14.900Z,96405.92
2022-10-20T18:11:49.153Z,96405.14
2022-10-20T18:14:16.673Z,96403.23
2022-10-20T18:16:43.826Z,96402.83
2022-10-20T18:19:16.507Z,96403.77
2022-10-20T18:21:43.864Z,96405.91
2022-10-20T18:24:12.760Z,96402.21
2022-10-20T18:26:39.526Z,96402.85
2022-10-20T18:29:08.365Z,96401.39
2022-10-20T18:31:36.834Z,96400.66
2022-10-20T18:34:07.066Z,96399.95
2022-10-20T18:36:39.120Z,96398.96
2022-10-20T18:39:09.741Z,96399.73
2022-10-20T18:41:39.618Z,96398.91
2022-10-20T18:44:11.758Z,96395.27
2022-10-20T18:46:39.201Z,96397.07
2022-10-20T18:49:07.786Z,96397.73
2022-10-20T18:51:35.803Z,96399.42
2022-10-20T18:54:04.628Z,96403.88
2022-10-20T18:56:31.638Z,96405.48
2022-10-20T18:59:01.233Z,96408.83
2022-10-20T19:01:30.993Z,96410.04
2022-10-20T19:03:58.922Z,96409.38
2022-10-20T19:06:28.739Z,96412.61
2022-10-20T19:09:01.766Z,96413.92
2022-10-20T19:11:31.581Z,96414.45
2022-10-20T19:13:59.312Z,96419.74
2022-10-20T19:16:28.965Z,96420.08
2022-10-20T19:18:57.914Z,96423.54
2022-10-20T19:21:25.989Z,96424.66
2022-10-20T19:23:57.465Z,96426.52
2022-10-20T19:26:57.533Z,96428.15
2022-10-20T19:29:35.322Z,96432.92
2022-10-20T19:32:04.624Z,96434.97
2022-10-20T19:34:34.689Z,96441.53
2022-10-20T19:37:02.769Z,96441.37
2022-10-20T19:39:36.410Z,96441.00
2022-10-20T19:42:04.056Z,96445.59
2022-10-20T19:44:31.283Z,96445.94
2022-10-20T19:46:58.158Z,96446.63
2022-10-20T19:49:26.206Z,96443.68
2022-10-20T19:51:53.352Z,96444.69
2022-10-20T19:54:20.196Z,96443.70
2022-10-20T19:56:47.041Z,96445.18
2022-10-20T19:59:14.120Z,96445.92
2022-10-20T20:01:41.141Z,96444.90
2022-10-20T20:04:07.999Z,96444.98
2022-10-20T20:06:35.139Z,96447.96
2022-10-20T20:09:05.856Z,96447.44
2022-10-20T20:11:34.356Z,96453.65
2022-10-20T20:14:11.444Z,96455.02
2022-10-20T20:16:39.543Z,96455.54
2022-10-20T20:19:06.459Z,96456.38
2022-10-20T20:21:33.824Z,96452.88
2022-10-20T20:24:03.242Z,96457.30
2022-10-20T20:26:32.731Z,96454.63
2022-10-20T20:29:00.145Z,96451.10
2022-10-20T20:31:27.868Z,96452.83
2022-10-20T20:33:57.004Z,96451.63
2022-10-20T20:36:26.181Z,96452.38
2022-10-20T20:38:58.573Z,96452.05
2022-10-20T20:41:29.530Z,96446.45
2022-10-20T20:43:56.306Z,96445.48
2022-10-20T20:46:28.237Z,96443.61
2022-10-20T20:48:55.321Z,96448.55
2022-10-20T20:51:22.476Z,96450.35
2022-10-20T20:53:49.250Z,96452.20
2022-10-20T20:56:20.501Z,96448.45
2022-10-20T20:58:50.381Z,96457.03
2022-10-20T21:01:21.150Z,96450.33
2022-10-20T21:03:53.065Z,96451.46
2022-10-20T21:06:22.966Z,96448.21
2022-10-20T21:08:55.892Z,96446.49
2022-10-20T21:11:25.550Z,96446.33
2022-10-20T21:13:54.816Z,96442.20
2022-10-20T21:16:25.245Z,96444.02
2022-10-20T21:18:54.739Z,96442.59
2022-10-20T21:21:26.597Z,96440.33
2022-10-20T21:23:55.084Z,96432.48
2022-10-20T21:26:22.761Z,96430.16
2022-10-20T21:28:49.888Z,96433.83
2022-10-20T21:31:19.077Z,96434.89
2022-10-20T21:33:49.887Z,96435.52
2022-10-20T21:36:18.715Z,96437.91
2022-10-20T21:38:46.798Z,96441.00
2022-10-20T21:41:18.694Z,96440.79
2022-10-20T21:43:48.113Z,96438.11
2022-10-20T21:46:22.582Z,96436.72
2022-10-20T21:48:51.398Z,96441.30
2022-10-20T21:51:19.738Z,96439.91
2022-10-20T21:53:47.213Z,96442.70
2022-10-20T21:56:15.794Z,96439.02
2022-10-20T21:58:42.553Z,96438.61
2022-10-20T22:01:17.654Z,96436.65
2022-10-20T22:03:45.851Z,96435.10
2022-10-20T22:06:15.463Z,96436.42
2022-10-20T22:08:45.256Z,96439.88
2022-10-20T22:11:16.788Z,96448.05
2022-10-20T22:13:43.505Z,96444.25
2022-10-20T22:16:14.307Z,96443.55
2022-10-20T22:18:41.565Z,96440.64
2022-10-20T22:21:17.489Z,96436.47
2022-10-20T22:23:44.879Z,96438.25
2022-10-20T22:26:11.997Z,96438.45
2022-10-20T22:28:39.512Z,96437.53
2022-10-20T22:31:06.948Z,96432.64
2022-10-20T22:33:34.430Z,96431.75
2022-10-20T22:36:01.662Z,96430.42
2022-10-20T22:38:28.545Z,96427.14
2022-10-20T22:40:59.984Z,96434.36
2022-10-20T22:43:28.439Z,96438.48
2022-10-20T22:45:55.340Z,96435.14
2022-10-20T22:48:22.447Z,96431.59
2022-10-20T22:50:49.795Z,96427.38
2022-10-20T22:53:16.790Z,96425.13
2022-10-20T22:55:43.576Z,96419.56
2022-10-20T22:58:10.253Z,96422.22
2022-10-20T23:00:41.462Z,96416.35
2022-10-20T23:03:08.829Z,96415.47
2022-10-20T23:05:36.235Z,96416.79
2022-10-20T23:08:02.908Z,96417.02
2022-10-20T23:10:30.298Z,96414.77
2022-10-20T23:12:56.825Z,96416.71
2022-10-20T23:15:23.413Z,96417.38
2022-10-20T23:17:50.098Z,96416.85
2022-10-20T23:20:16.639Z,96421.67
2022-10-20T23:22:43.282Z,96421.23
2022-10-20T23:25:09.796Z,96422.91
2022-10-20T23:27:36.955Z,96417.76
2022-10-20T23:30:04.730Z,96418.86
2022-10-20T23:32:31.516Z,96420.37
2022-10-20T23:34:58.137Z,96418.83
2022-10-20T23:37:24.841Z,96420.90
2022-10-20T23:39:51.527Z,96424.62
2022-10-20T23:42:18.056Z,96425.27
2022-10-20T23:44:44.816Z,96425.09
2022-10-20T23:47:11.402Z,96420.55
2022-10-20T23:49:38.462Z,96418.90
2022-10-20T23:52:05.101Z,96414.17
2022-10-20T23:54:31.816Z,96409.73
2022-10-20T23:56:58.515Z,96410.56
2022-10-20T23:59:25.207Z,96410.98
